Terminal Aerodrome Forecast
Issued by NWS

Home | Current Version | Previous Version | Text Only | Print | Product List | Glossary On
Versions: 1 2 3 4 5 6 7 8 9 10 11 12 13 14
981
FTUS45 KFGZ 221120
TAFGCN
TAF
KGCN 221120Z 2212/2312 VRB05KT P6SM SCT060 BKN090
     FM221600 21012G20KT P6SM SCT045 BKN060
      TEMPO 2220/2224 VRB20G30KT 5SM TSRA OVC040CB
     FM230000 22010KT P6SM VCSH BKN035 OVC060
      TEMPO 2300/2304 5SM -SHRA BR SCT020 OVC030
     FM230800 VRB04KT 5SM -SHRA BR OVC020=

USA.gov is the U.S. government's official web portal to all federal, state and local government web resources and services.